Winnebago, Illinois
Current Conditions -  °F | °C
As of 1:54 PM on Sunday 23 Nov 2014 (Local Time) from KRFD Reporting Station
Light Rain Light Rain  
Wind Chill: 50°   Ceiling: 900
Heat Index: 50°   Visibility: 4mi
Dew Point: 47°   Wind: 12mph
Humidity: 89%   Direction: 150°SSE
Pressure: 29.5"   Gusts: NA
Location:  42.27°N, 89.24°W
Report Text: KRFD 231954Z 15010KT 4SM -RA BR OVC009 10/08 A2950 RMK AO2 RAE16B43 SLP992 P0000 T01000083
Loading
Personal Weather Stations






























Interactive Weather Map New forecast layout! Learn more

10-Day Weather Forecast

Advertisements
Track Severe Weather on mobile